sensor_id;sensor_type;location;lat;lon;timestamp;P1;P2;P0
43180;PMS7003;28798;54.950;26.362;2022-07-23T00:03:42;10.2;9.8;7.7
43180;PMS7003;28798;54.950;26.362;2022-07-23T00:08:43;7.2;6.8;5.8
43180;PMS7003;28798;54.950;26.362;2022-07-23T00:13:43;7.2;6.8;5.8
43180;PMS7003;28798;54.950;26.362;2022-07-23T00:18:42;5.9;5.6;4.9
43180;PMS7003;28798;54.950;26.362;2022-07-23T00:23:42;7.2;7.2;5.5
43180;PMS7003;28798;54.950;26.362;2022-07-23T00:28:42;8.6;8.3;6.9
43180;PMS7003;28798;54.950;26.362;2022-07-23T00:33:42;4.3;4.3;4.1
43180;PMS7003;28798;54.950;26.362;2022-07-23T00:38:42;4.3;4.3;4.1
43180;PMS7003;28798;54.950;26.362;2022-07-23T00:43:42;6.4;6.4;4.9
43180;PMS7003;28798;54.950;26.362;2022-07-23T00:48:42;6.4;6.4;4.9
43180;PMS7003;28798;54.950;26.362;2022-07-23T00:53:43;6.3;5.9;5.1
43180;PMS7003;28798;54.950;26.362;2022-07-23T00:58:42;6.3;5.9;5.1
43180;PMS7003;28798;54.950;26.362;2022-07-23T01:03:42;6.5;6.5;4.8
43180;PMS7003;28798;54.950;26.362;2022-07-23T01:08:42;7.1;5.9;4.7
43180;PMS7003;28798;54.950;26.362;2022-07-23T01:13:43;7.5;7.2;4.8
43180;PMS7003;28798;54.950;26.362;2022-07-23T01:18:42;7.5;7.2;4.8
43180;PMS7003;28798;54.950;26.362;2022-07-23T01:23:42;7.2;6.3;5.2
43180;PMS7003;28798;54.950;26.362;2022-07-23T01:28:43;7.2;6.3;5.2
43180;PMS7003;28798;54.950;26.362;2022-07-23T01:33:42;7.3;7;5.5
43180;PMS7003;28798;54.950;26.362;2022-07-23T01:38:42;7.5;7;5.5
43180;PMS7003;28798;54.950;26.362;2022-07-23T01:43:42;8.6;7.4;5.6
43180;PMS7003;28798;54.950;26.362;2022-07-23T01:48:43;8.6;7.4;5.6
43180;PMS7003;28798;54.950;26.362;2022-07-23T01:53:42;5.8;5.8;4.9
43180;PMS7003;28798;54.950;26.362;2022-07-23T01:58:42;10.3;9.2;7.4
43180;PMS7003;28798;54.950;26.362;2022-07-23T02:03:42;10.3;9.2;7.4
43180;PMS7003;28798;54.950;26.362;2022-07-23T02:08:42;8.3;8.3;6.9
43180;PMS7003;28798;54.950;26.362;2022-07-23T02:13:42;8.3;8.3;6.9
43180;PMS7003;28798;54.950;26.362;2022-07-23T02:18:42;7.1;7.1;6
43180;PMS7003;28798;54.950;26.362;2022-07-23T02:23:42;6.5;6.5;5.3
43180;PMS7003;28798;54.950;26.362;2022-07-23T02:28:43;6.5;6.5;5.3
43180;PMS7003;28798;54.950;26.362;2022-07-23T02:33:42;7.9;7.9;6.6
43180;PMS7003;28798;54.950;26.362;2022-07-23T02:38:42;10.3;9;6.4
43180;PMS7003;28798;54.950;26.362;2022-07-23T02:43:42;10.3;9;6.4
43180;PMS7003;28798;54.950;26.362;2022-07-23T02:48:43;7.3;6.6;5.2
43180;PMS7003;28798;54.950;26.362;2022-07-23T02:53:42;7.3;6.6;5.2
43180;PMS7003;28798;54.950;26.362;2022-07-23T02:58:42;8.2;7.3;6.3
43180;PMS7003;28798;54.950;26.362;2022-07-23T03:03:42;5.7;5.7;4.8
43180;PMS7003;28798;54.950;26.362;2022-07-23T03:08:43;5.7;5.7;4.8
43180;PMS7003;28798;54.950;26.362;2022-07-23T03:13:43;8.7;7.9;5.9
43180;PMS7003;28798;54.950;26.362;2022-07-23T03:18:42;8.7;7.9;5.9
43180;PMS7003;28798;54.950;26.362;2022-07-23T03:23:42;21.4;20.6;14.8
43180;PMS7003;28798;54.950;26.362;2022-07-23T03:28:42;21.4;20.6;14.8
43180;PMS7003;28798;54.950;26.362;2022-07-23T03:33:42;20.8;20.5;15.3
43180;PMS7003;28798;54.950;26.362;2022-07-23T03:38:42;15.1;14.4;11.5
43180;PMS7003;28798;54.950;26.362;2022-07-23T03:43:42;33.4;30.1;22.3
43180;PMS7003;28798;54.950;26.362;2022-07-23T03:48:42;33.4;30.1;22.3
43180;PMS7003;28798;54.950;26.362;2022-07-23T03:53:42;26.6;25.8;19.7
43180;PMS7003;28798;54.950;26.362;2022-07-23T03:58:42;29.4;28.1;21.1
43180;PMS7003;28798;54.950;26.362;2022-07-23T04:03:43;29.4;28.1;21.1
43180;PMS7003;28798;54.950;26.362;2022-07-23T04:08:42;18.3;17.3;13.3
43180;PMS7003;28798;54.950;26.362;2022-07-23T04:13:42;23.5;23.4;17.6
43180;PMS7003;28798;54.950;26.362;2022-07-23T04:18:43;22.9;21.9;17
43180;PMS7003;28798;54.950;26.362;2022-07-23T04:23:42;22.9;21.9;17
43180;PMS7003;28798;54.950;26.362;2022-07-23T04:28:42;25.2;25.1;19.3
43180;PMS7003;28798;54.950;26.362;2022-07-23T04:33:42;21;20.6;15.8
43180;PMS7003;28798;54.950;26.362;2022-07-23T04:38:43;23.9;23.1;17.1
43180;PMS7003;28798;54.950;26.362;2022-07-23T04:43:42;29.6;28.4;21.2
43180;PMS7003;28798;54.950;26.362;2022-07-23T04:48:42;24.9;24.6;17.5
43180;PMS7003;28798;54.950;26.362;2022-07-23T04:53:43;22.4;21.6;17.2
43180;PMS7003;28798;54.950;26.362;2022-07-23T04:58:42;23.1;19.9;15.6
43180;PMS7003;28798;54.950;26.362;2022-07-23T05:03:43;16.9;15.9;12.8
43180;PMS7003;28798;54.950;26.362;2022-07-23T05:08:43;13.2;12.9;10.9
43180;PMS7003;28798;54.950;26.362;2022-07-23T05:13:42;12.7;12.1;9.5
43180;PMS7003;28798;54.950;26.362;2022-07-23T05:18:42;12.7;12.1;9.5
43180;PMS7003;28798;54.950;26.362;2022-07-23T05:23:42;12.4;11.9;9
43180;PMS7003;28798;54.950;26.362;2022-07-23T05:28:43;14.1;12.9;9.9
43180;PMS7003;28798;54.950;26.362;2022-07-23T05:33:43;12.4;12;8.9
43180;PMS7003;28798;54.950;26.362;2022-07-23T05:38:43;15;15;10.5
43180;PMS7003;28798;54.950;26.362;2022-07-23T05:43:42;15.7;15.1;10.5
43180;PMS7003;28798;54.950;26.362;2022-07-23T05:48:43;16.3;15.4;11.8
43180;PMS7003;28798;54.950;26.362;2022-07-23T05:53:42;15.7;14.7;11.1
43180;PMS7003;28798;54.950;26.362;2022-07-23T05:58:43;14.7;13.4;10.8
43180;PMS7003;28798;54.950;26.362;2022-07-23T06:03:42;18.6;18.6;13
43180;PMS7003;28798;54.950;26.362;2022-07-23T06:08:43;12.2;12.2;10.5
43180;PMS7003;28798;54.950;26.362;2022-07-23T06:13:43;12.2;12.2;10.5
43180;PMS7003;28798;54.950;26.362;2022-07-23T06:18:43;18.8;17.9;13.3
43180;PMS7003;28798;54.950;26.362;2022-07-23T06:23:43;16.7;15.7;12.5
43180;PMS7003;28798;54.950;26.362;2022-07-23T06:28:42;14.8;14.2;11.5
43180;PMS7003;28798;54.950;26.362;2022-07-23T06:33:42;14.8;14.2;11.5
43180;PMS7003;28798;54.950;26.362;2022-07-23T06:38:43;15.8;15.6;12.3
43180;PMS7003;28798;54.950;26.362;2022-07-23T06:43:42;21.6;20.4;14.3
43180;PMS7003;28798;54.950;26.362;2022-07-23T06:48:43;17.1;16.2;12.2
43180;PMS7003;28798;54.950;26.362;2022-07-23T06:53:43;17.4;16.9;12.9
43180;PMS7003;28798;54.950;26.362;2022-07-23T06:58:42;17.4;16.9;12.9
43180;PMS7003;28798;54.950;26.362;2022-07-23T07:03:43;16.2;15.9;12.6
43180;PMS7003;28798;54.950;26.362;2022-07-23T07:08:43;13.3;12.8;10.6
43180;PMS7003;28798;54.950;26.362;2022-07-23T07:13:42;14.3;14.2;11.1
43180;PMS7003;28798;54.950;26.362;2022-07-23T07:18:42;13.6;13.6;11.3
43180;PMS7003;28798;54.950;26.362;2022-07-23T07:23:42;15.8;15.8;12.7
43180;PMS7003;28798;54.950;26.362;2022-07-23T07:28:42;14.9;14.6;11.9
43180;PMS7003;28798;54.950;26.362;2022-07-23T07:33:43;15.9;15.9;11.6
43180;PMS7003;28798;54.950;26.362;2022-07-23T07:38:42;16.9;16.2;12.8
43180;PMS7003;28798;54.950;26.362;2022-07-23T07:43:43;15;15;11.6
43180;PMS7003;28798;54.950;26.362;2022-07-23T07:48:43;15.3;15.1;11.3
43180;PMS7003;28798;54.950;26.362;2022-07-23T07:53:42;15.3;15.1;11.3
43180;PMS7003;28798;54.950;26.362;2022-07-23T07:58:43;15.3;15.3;11.4
43180;PMS7003;28798;54.950;26.362;2022-07-23T08:03:43;13.1;13.1;10.2
43180;PMS7003;28798;54.950;26.362;2022-07-23T08:08:43;16.1;16;11.5
43180;PMS7003;28798;54.950;26.362;2022-07-23T08:13:42;13.8;13.5;10.5
43180;PMS7003;28798;54.950;26.362;2022-07-23T08:18:43;13.9;13.6;10.2
43180;PMS7003;28798;54.950;26.362;2022-07-23T08:23:43;15.6;14.7;11.3
43180;PMS7003;28798;54.950;26.362;2022-07-23T08:28:43;14;13.7;11
43180;PMS7003;28798;54.950;26.362;2022-07-23T08:33:43;11.4;11.2;9.1
43180;PMS7003;28798;54.950;26.362;2022-07-23T08:38:43;15.1;14.8;11.6
43180;PMS7003;28798;54.950;26.362;2022-07-23T08:43:43;16.5;14.7;10.8
43180;PMS7003;28798;54.950;26.362;2022-07-23T08:48:43;14.4;13.8;11.4
43180;PMS7003;28798;54.950;26.362;2022-07-23T08:53:43;15.3;15.3;11.5
43180;PMS7003;28798;54.950;26.362;2022-07-23T08:58:43;15.8;15.4;10.7
43180;PMS7003;28798;54.950;26.362;2022-07-23T09:03:43;13.4;13.4;9.8
43180;PMS7003;28798;54.950;26.362;2022-07-23T09:08:43;15.1;15.1;12.3
43180;PMS7003;28798;54.950;26.362;2022-07-23T09:13:46;14.6;14.6;12
43180;PMS7003;28798;54.950;26.362;2022-07-23T09:18:47;14.6;14.6;12
43180;PMS7003;28798;54.950;26.362;2022-07-23T09:23:44;12.2;11.7;9.6
43180;PMS7003;28798;54.950;26.362;2022-07-23T09:28:51;11.9;11.6;9.2
43180;PMS7003;28798;54.950;26.362;2022-07-23T09:33:42;13.7;13.6;11
43180;PMS7003;28798;54.950;26.362;2022-07-23T09:38:50;14.2;12.3;9.3
43180;PMS7003;28798;54.950;26.362;2022-07-23T09:43:43;12.2;11.9;9.3
43180;PMS7003;28798;54.950;26.362;2022-07-23T09:48:43;13.6;12.3;9.3
43180;PMS7003;28798;54.950;26.362;2022-07-23T09:53:43;18.2;17.7;14.7
43180;PMS7003;28798;54.950;26.362;2022-07-23T09:58:43;14.9;14.2;11.1
43180;PMS7003;28798;54.950;26.362;2022-07-23T10:03:43;13.5;13.5;10.1
43180;PMS7003;28798;54.950;26.362;2022-07-23T10:08:42;12.7;12.1;9.5
43180;PMS7003;28798;54.950;26.362;2022-07-23T10:13:43;12;11.7;8.8
43180;PMS7003;28798;54.950;26.362;2022-07-23T10:18:43;12.8;12.4;9.5
43180;PMS7003;28798;54.950;26.362;2022-07-23T10:23:45;13;13;9.9
43180;PMS7003;28798;54.950;26.362;2022-07-23T10:29:49;14.6;14;10.8
43180;PMS7003;28798;54.950;26.362;2022-07-23T10:33:54;14.4;13.7;11
43180;PMS7003;28798;54.950;26.362;2022-07-23T10:38:48;12.9;12.9;9.1
43180;PMS7003;28798;54.950;26.362;2022-07-23T10:43:43;13.6;13.6;10.6
43180;PMS7003;28798;54.950;26.362;2022-07-23T10:48:43;13.1;12.6;9.6
43180;PMS7003;28798;54.950;26.362;2022-07-23T10:53:58;13.4;12.2;10.3
43180;PMS7003;28798;54.950;26.362;2022-07-23T10:58:47;13.4;13.4;10.6
43180;PMS7003;28798;54.950;26.362;2022-07-23T11:03:44;14.8;14.8;11.4
43180;PMS7003;28798;54.950;26.362;2022-07-23T11:08:43;13.5;11.7;9.8
43180;PMS7003;28798;54.950;26.362;2022-07-23T11:13:44;12.6;12.2;10.2
43180;PMS7003;28798;54.950;26.362;2022-07-23T11:23:57;13.4;13.2;10.2
43180;PMS7003;28798;54.950;26.362;2022-07-23T11:28:43;12.8;12.8;9.9
43180;PMS7003;28798;54.950;26.362;2022-07-23T11:33:43;12.9;12.6;9.7
43180;PMS7003;28798;54.950;26.362;2022-07-23T11:38:43;15.6;15.3;11.3
43180;PMS7003;28798;54.950;26.362;2022-07-23T11:43:43;12.6;12.2;10.7
43180;PMS7003;28798;54.950;26.362;2022-07-23T11:48:43;13;13;10
43180;PMS7003;28798;54.950;26.362;2022-07-23T11:53:44;11.6;11.2;8.8
43180;PMS7003;28798;54.950;26.362;2022-07-23T11:58:53;11;10.4;8.4
43180;PMS7003;28798;54.950;26.362;2022-07-23T12:03:50;12.5;12.1;9.6
43180;PMS7003;28798;54.950;26.362;2022-07-23T12:08:43;12.9;12.9;9.3
43180;PMS7003;28798;54.950;26.362;2022-07-23T12:13:43;13.9;13.6;10.1
43180;PMS7003;28798;54.950;26.362;2022-07-23T12:18:43;13.6;12.9;10.9
43180;PMS7003;28798;54.950;26.362;2022-07-23T12:23:43;12.7;11.9;9.5
43180;PMS7003;28798;54.950;26.362;2022-07-23T12:28:43;11.1;11.1;9.3
43180;PMS7003;28798;54.950;26.362;2022-07-23T12:33:43;12.4;11.7;9.3
43180;PMS7003;28798;54.950;26.362;2022-07-23T12:38:46;10.7;10.3;7.9
43180;PMS7003;28798;54.950;26.362;2022-07-23T12:43:43;13.6;12.9;10.5
43180;PMS7003;28798;54.950;26.362;2022-07-23T12:48:51;13.6;12.9;10.5
43180;PMS7003;28798;54.950;26.362;2022-07-23T12:53:45;11;11;9.1
43180;PMS7003;28798;54.950;26.362;2022-07-23T12:58:46;11;11;9.1
43180;PMS7003;28798;54.950;26.362;2022-07-23T13:03:42;11.1;11.1;9
43180;PMS7003;28798;54.950;26.362;2022-07-23T13:08:43;12.5;12.4;9.4
43180;PMS7003;28798;54.950;26.362;2022-07-23T13:13:43;11.1;11;9.6
43180;PMS7003;28798;54.950;26.362;2022-07-23T13:18:43;11.3;11;8.9
43180;PMS7003;28798;54.950;26.362;2022-07-23T13:23:43;7.6;7.6;6.7
43180;PMS7003;28798;54.950;26.362;2022-07-23T13:28:43;7.6;7.6;6.7
43180;PMS7003;28798;54.950;26.362;2022-07-23T13:33:43;11.2;11.2;9.5
43180;PMS7003;28798;54.950;26.362;2022-07-23T13:38:43;9.6;9.6;7.8
43180;PMS7003;28798;54.950;26.362;2022-07-23T13:43:43;11.6;11.1;8.6
43180;PMS7003;28798;54.950;26.362;2022-07-23T13:48:43;11.2;11.2;8.1
43180;PMS7003;28798;54.950;26.362;2022-07-23T13:53:43;10.4;10.1;7.9
43180;PMS7003;28798;54.950;26.362;2022-07-23T13:58:43;10.1;9.9;9
43180;PMS7003;28798;54.950;26.362;2022-07-23T14:03:43;10.1;9.9;9
43180;PMS7003;28798;54.950;26.362;2022-07-23T14:08:43;11.5;11.5;9.5
43180;PMS7003;28798;54.950;26.362;2022-07-23T14:13:43;11.2;11.2;9.2
43180;PMS7003;28798;54.950;26.362;2022-07-23T14:18:43;11.2;11.1;8.5
43180;PMS7003;28798;54.950;26.362;2022-07-23T14:23:43;15.2;15.1;10.9
43180;PMS7003;28798;54.950;26.362;2022-07-23T14:28:43;10.7;10.7;8.2
43180;PMS7003;28798;54.950;26.362;2022-07-23T14:33:43;20.9;20.9;14.6
43180;PMS7003;28798;54.950;26.362;2022-07-23T14:38:43;22;21.2;16.3
43180;PMS7003;28798;54.950;26.362;2022-07-23T14:43:43;20;20;15.2
43180;PMS7003;28798;54.950;26.362;2022-07-23T14:48:43;19.8;19.5;14.8
43180;PMS7003;28798;54.950;26.362;2022-07-23T14:53:43;17.4;17.2;13.8
43180;PMS7003;28798;54.950;26.362;2022-07-23T14:58:43;14.8;14.8;11.7
43180;PMS7003;28798;54.950;26.362;2022-07-23T15:03:43;13.4;13.4;10.3
43180;PMS7003;28798;54.950;26.362;2022-07-23T15:08:43;10.9;10.9;8.2
43180;PMS7003;28798;54.950;26.362;2022-07-23T15:13:43;11.3;10.7;9.3
43180;PMS7003;28798;54.950;26.362;2022-07-23T15:18:43;11.3;10.7;9.3
43180;PMS7003;28798;54.950;26.362;2022-07-23T15:23:43;12.3;11.4;10.3
43180;PMS7003;28798;54.950;26.362;2022-07-23T15:28:43;12.3;11.4;10.3
43180;PMS7003;28798;54.950;26.362;2022-07-23T15:33:43;11.6;11.6;9.6
43180;PMS7003;28798;54.950;26.362;2022-07-23T15:38:43;11.6;11.6;9.6
43180;PMS7003;28798;54.950;26.362;2022-07-23T15:43:43;11.6;11.6;9.6
43180;PMS7003;28798;54.950;26.362;2022-07-23T15:48:43;11.6;11.6;9.6
43180;PMS7003;28798;54.950;26.362;2022-07-23T15:53:43;11.6;11.6;9.6
43180;PMS7003;28798;54.950;26.362;2022-07-23T15:58:43;7.4;7.4;5.8
43180;PMS7003;28798;54.950;26.362;2022-07-23T16:03:43;7.4;7.4;5.8
43180;PMS7003;28798;54.950;26.362;2022-07-23T16:08:43;7.4;7.4;5.8
43180;PMS7003;28798;54.950;26.362;2022-07-23T16:13:43;7.7;7.7;5.5
43180;PMS7003;28798;54.950;26.362;2022-07-23T16:18:43;7.7;7.7;5.5
43180;PMS7003;28798;54.950;26.362;2022-07-23T16:23:43;7.7;7.7;5.5
43180;PMS7003;28798;54.950;26.362;2022-07-23T16:28:43;7.7;7.7;5.5
43180;PMS7003;28798;54.950;26.362;2022-07-23T16:33:43;7.7;7.7;5.5
43180;PMS7003;28798;54.950;26.362;2022-07-23T16:38:43;8.8;8.8;6.3
43180;PMS7003;28798;54.950;26.362;2022-07-23T16:43:43;8.8;8.8;6.3
43180;PMS7003;28798;54.950;26.362;2022-07-23T16:48:43;10.1;10.1;7.3
43180;PMS7003;28798;54.950;26.362;2022-07-23T16:53:43;11.2;11.2;9.1
43180;PMS7003;28798;54.950;26.362;2022-07-23T16:58:43;21.6;19.8;16.1
43180;PMS7003;28798;54.950;26.362;2022-07-23T17:03:43;27.4;26.5;18.1
43180;PMS7003;28798;54.950;26.362;2022-07-23T17:08:43;22.1;21.9;15.2
43180;PMS7003;28798;54.950;26.362;2022-07-23T17:13:43;17.8;16.8;12.6
43180;PMS7003;28798;54.950;26.362;2022-07-23T17:18:43;69.3;59.5;35.1
43180;PMS7003;28798;54.950;26.362;2022-07-23T17:23:43;69.3;59.5;35.1
43180;PMS7003;28798;54.950;26.362;2022-07-23T17:28:43;39.5;34.7;23.8
43180;PMS7003;28798;54.950;26.362;2022-07-23T17:33:43;39.5;34.7;23.8
43180;PMS7003;28798;54.950;26.362;2022-07-23T17:38:43;22.6;21.4;15.8
43180;PMS7003;28798;54.950;26.362;2022-07-23T17:43:43;19.9;18.9;14.6
43180;PMS7003;28798;54.950;26.362;2022-07-23T17:48:43;15.5;15.5;12
43180;PMS7003;28798;54.950;26.362;2022-07-23T17:53:43;33.2;30.3;21.6
43180;PMS7003;28798;54.950;26.362;2022-07-23T17:58:43;37;32.4;23.7
43180;PMS7003;28798;54.950;26.362;2022-07-23T18:03:43;33.8;31.1;21.3
43180;PMS7003;28798;54.950;26.362;2022-07-23T18:08:43;38.3;34.4;24.3
43180;PMS7003;28798;54.950;26.362;2022-07-23T18:13:43;47.8;40.1;26.5
43180;PMS7003;28798;54.950;26.362;2022-07-23T18:18:43;56.2;46.9;32.8
43180;PMS7003;28798;54.950;26.362;2022-07-23T18:23:43;43.7;37.8;26.4
43180;PMS7003;28798;54.950;26.362;2022-07-23T18:28:43;27.5;25.7;20.8
43180;PMS7003;28798;54.950;26.362;2022-07-23T18:33:43;27.1;26.6;20.2
43180;PMS7003;28798;54.950;26.362;2022-07-23T18:38:43;20.5;19.8;15.9
43180;PMS7003;28798;54.950;26.362;2022-07-23T18:43:43;21;20.2;15.7
43180;PMS7003;28798;54.950;26.362;2022-07-23T18:48:43;18.2;17.2;12.9
43180;PMS7003;28798;54.950;26.362;2022-07-23T18:53:43;23.9;22.8;16.5
43180;PMS7003;28798;54.950;26.362;2022-07-23T18:58:43;26.5;25.6;18.9
43180;PMS7003;28798;54.950;26.362;2022-07-23T19:03:43;17.1;16.9;14.9
43180;PMS7003;28798;54.950;26.362;2022-07-23T19:08:43;15.1;14.8;10.8
43180;PMS7003;28798;54.950;26.362;2022-07-23T19:13:43;12.4;12.1;9.7
43180;PMS7003;28798;54.950;26.362;2022-07-23T19:18:43;12.4;12.1;9.7
43180;PMS7003;28798;54.950;26.362;2022-07-23T19:23:43;14.4;14.1;10.7
43180;PMS7003;28798;54.950;26.362;2022-07-23T19:28:43;13.2;12.7;9.7
43180;PMS7003;28798;54.950;26.362;2022-07-23T19:33:43;13.6;13.6;10.2
43180;PMS7003;28798;54.950;26.362;2022-07-23T19:38:43;13.9;13.7;10.9
43180;PMS7003;28798;54.950;26.362;2022-07-23T19:43:43;9.9;9.9;8.9
43180;PMS7003;28798;54.950;26.362;2022-07-23T19:48:43;10.5;10.2;7.5
43180;PMS7003;28798;54.950;26.362;2022-07-23T19:53:43;10.7;10.4;8.6
43180;PMS7003;28798;54.950;26.362;2022-07-23T19:58:43;12.4;12.1;8.9
43180;PMS7003;28798;54.950;26.362;2022-07-23T20:03:43;12.2;11.8;8.9
43180;PMS7003;28798;54.950;26.362;2022-07-23T20:08:43;11.9;11.3;8.7
43180;PMS7003;28798;54.950;26.362;2022-07-23T20:13:43;9.6;9.4;7.8
43180;PMS7003;28798;54.950;26.362;2022-07-23T20:18:43;20.4;20;14.2
43180;PMS7003;28798;54.950;26.362;2022-07-23T20:23:43;25.5;23.8;17.9
43180;PMS7003;28798;54.950;26.362;2022-07-23T20:28:43;19.5;19.3;15.4
43180;PMS7003;28798;54.950;26.362;2022-07-23T20:33:43;19;17.3;11.9
43180;PMS7003;28798;54.950;26.362;2022-07-23T20:38:43;15.2;15.2;11.5
43180;PMS7003;28798;54.950;26.362;2022-07-23T20:43:43;12.3;12.3;8.6
43180;PMS7003;28798;54.950;26.362;2022-07-23T20:48:43;13.6;13.1;10.4
43180;PMS7003;28798;54.950;26.362;2022-07-23T20:53:43;11.1;10.6;7.1
43180;PMS7003;28798;54.950;26.362;2022-07-23T20:58:43;17.1;16.9;11.1
43180;PMS7003;28798;54.950;26.362;2022-07-23T21:03:43;17.1;16.9;11.1
43180;PMS7003;28798;54.950;26.362;2022-07-23T21:08:43;23.6;21;13.9
43180;PMS7003;28798;54.950;26.362;2022-07-23T21:13:43;23.6;21;13.9
43180;PMS7003;28798;54.950;26.362;2022-07-23T21:18:43;14.6;12.6;9.3
43180;PMS7003;28798;54.950;26.362;2022-07-23T21:23:44;14.6;12.6;9.3
43180;PMS7003;28798;54.950;26.362;2022-07-23T21:28:43;14.6;12.6;9.3
43180;PMS7003;28798;54.950;26.362;2022-07-23T21:33:43;14.6;12.6;9.3
43180;PMS7003;28798;54.950;26.362;2022-07-23T21:38:43;14.6;12.6;9.3
43180;PMS7003;28798;54.950;26.362;2022-07-23T21:43:43;14.6;12.6;9.3
43180;PMS7003;28798;54.950;26.362;2022-07-23T21:48:43;14.6;12.6;9.3
43180;PMS7003;28798;54.950;26.362;2022-07-23T21:53:43;7.5;6.7;5.5
43180;PMS7003;28798;54.950;26.362;2022-07-23T21:58:43;7.5;6.7;5.5
43180;PMS7003;28798;54.950;26.362;2022-07-23T22:03:43;4.6;4.5;3.9
43180;PMS7003;28798;54.950;26.362;2022-07-23T22:08:43;7.8;7.3;5.8
43180;PMS7003;28798;54.950;26.362;2022-07-23T22:13:43;7.9;7.6;5.5
43180;PMS7003;28798;54.950;26.362;2022-07-23T22:18:43;7.9;7.6;5.5
43180;PMS7003;28798;54.950;26.362;2022-07-23T22:23:43;7.9;7.6;5.5
43180;PMS7003;28798;54.950;26.362;2022-07-23T22:28:43;7.9;7.6;5.5
43180;PMS7003;28798;54.950;26.362;2022-07-23T22:33:43;7.9;7.6;5.5
43180;PMS7003;28798;54.950;26.362;2022-07-23T22:38:43;5.2;4.7;3.7
43180;PMS7003;28798;54.950;26.362;2022-07-23T22:43:43;5.2;4.7;3.7
43180;PMS7003;28798;54.950;26.362;2022-07-23T22:48:43;5.2;4.7;3.7
43180;PMS7003;28798;54.950;26.362;2022-07-23T22:53:43;5.2;4.7;3.7
43180;PMS7003;28798;54.950;26.362;2022-07-23T22:58:43;4.4;3.8;2.8
43180;PMS7003;28798;54.950;26.362;2022-07-23T23:03:43;4.3;4.3;3.8
43180;PMS7003;28798;54.950;26.362;2022-07-23T23:08:43;7.2;7.2;6.1
43180;PMS7003;28798;54.950;26.362;2022-07-23T23:13:43;7.7;7.7;7.3
43180;PMS7003;28798;54.950;26.362;2022-07-23T23:18:43;7.7;7.7;7.3
43180;PMS7003;28798;54.950;26.362;2022-07-23T23:23:43;6;6;5.6
43180;PMS7003;28798;54.950;26.362;2022-07-23T23:28:43;6;6;5.6
43180;PMS7003;28798;54.950;26.362;2022-07-23T23:33:43;5.2;3.9;2.8
43180;PMS7003;28798;54.950;26.362;2022-07-23T23:38:43;5.2;3.9;2.8
43180;PMS7003;28798;54.950;26.362;2022-07-23T23:43:43;5.2;3.9;2.8
43180;PMS7003;28798;54.950;26.362;2022-07-23T23:48:43;5.2;3.9;2.8
43180;PMS7003;28798;54.950;26.362;2022-07-23T23:53:43;6.6;5.7;4.5
43180;PMS7003;28798;54.950;26.362;2022-07-23T23:58:43;4.2;4.2;3.2
